Have a Safe July 4th! 

Flight Track Log - Related Links

Times and Time Zones

All times are in EDT time to prevent confusion due to time zone crossing. See the UCA4838 flight status page for this flight to view local times or setup timezone preferences in your user account.

Time Position Orientation Groundspeed Altitude Reporting Facility
EDT Latitude Longitude Course Direction KTS MPH feet Rate Location/Type
Sat 08:07:02 AM 43.1203 -77.6933 266° West 127 146 1,300  Level Cleveland Center
Sat 08:07:39 AM 43.1189 -77.7219 266° West 144 166 2,000 1,052 Climbing Cleveland Center
Sat 08:08:39 AM 43.0717 -77.7553 207° Southwest 218 251 3,000 1,548 Climbing Cleveland Center
Sat 08:09:43 AM 43.0250 -77.7233 153° Southeast 212 244 5,200 2,081 Climbing Cleveland Center
Sat 08:10:43 AM 43.0108 -77.6531 105° East 211 243 7,300 1,850 Climbing Cleveland Center
Sat 08:11:43 AM 42.9925 -77.5858 110° East 199 229 8,900 1,650 Climbing Cleveland Center
Sat 08:12:43 AM 42.9717 -77.5131 111° Southeast 199 229 10,600 1,700 Climbing Cleveland Center
Sat 08:13:43 AM 42.9511 -77.4431 112° Southeast 199 229 12,300 1,200 Climbing Cleveland Center
Sat 08:14:43 AM 42.9281 -77.3619 111° Southeast 207 238 13,000 210 Climbing Cleveland Center
Sat 08:17:03 AM 42.8667 -77.1339 110° East 286 329 13,000  Level New York Center
Sat 08:18:04 AM 42.8347 -77.0289 113° Southeast 296 341 13,000  Level New York Center
Sat 08:19:03 AM 42.7933 -76.9283 119° Southeast 310 357 13,000  Level Boston Center
Sat 08:20:03 AM 42.7494 -76.8261 120° Southeast 316 364 13,000  Level Boston Center
Sat 08:21:03 AM 42.7053 -76.7269 121° Southeast 316 364 13,000  Level Boston Center
Sat 08:22:03 AM 42.6608 -76.6278 121° Southeast 311 358 13,000  Level Boston Center
Sat 08:23:03 AM 42.6167 -76.5289 121° Southeast 311 358 13,000  Level Boston Center
Sat 08:24:03 AM 42.5722 -76.4300 121° Southeast 311 358 13,000  Level Boston Center
Sat 08:25:03 AM 42.5278 -76.3283 121° Southeast 311 358 13,000  Level Boston Center
Sat 08:26:03 AM 42.4792 -76.2183 121° Southeast 316 364 13,000  Level Boston Center
Sat 08:27:03 AM 42.4364 -76.1231 121° Southeast 305 351 13,000  Level Boston Center
Sat 08:28:03 AM 42.3897 -76.0217 122° Southeast 315 362 13,000  Level Boston Center
Sat 08:29:03 AM 42.3431 -75.9181 121° Southeast 305 351 13,000  Level Boston Center
Sat 08:30:03 AM 42.2958 -75.8228 124° Southeast 315 362 13,000  Level Boston Center
Sat 08:31:15 AM 42.2567 -75.7308 120° Southeast 310 357 13,000  Level Boston Center
Sat 08:32:15 AM 42.2039 -75.6131 121° Southeast 310 357 13,000  Level Boston Center
Sat 08:33:15 AM 42.1564 -75.5153 123° Southeast 310 357 13,000  Level Boston Center
Sat 08:34:15 AM 42.1133 -75.4181 121° Southeast 310 357 13,000  Level Boston Center
Sat 08:35:15 AM 42.0658 -75.3208 123° Southeast 310 357 13,000  Level Boston Center
Sat 08:36:15 AM 42.0247 -75.2153 118° Southeast 310 357 13,000  Level Boston Center
Sat 08:37:15 AM 41.9836 -75.1047 117° Southeast 303 349 13,000  Level Boston Center
Sat 08:38:15 AM 41.9461 -75.0025 116° Southeast 308 354 13,000 -150 Level Boston Center
Sat 08:39:15 AM 41.8919 -74.9167 130° Southeast 308 354 12,700 -864 Descending Boston Center
Sat 08:40:27 AM 41.8117 -74.8689 156° South 307 353 11,100 -1,455 Descending Boston Center
Sat 08:41:27 AM 41.7275 -74.8100 152° Southeast 312 359 9,500 -1,650 Descending Boston Center
Sat 08:42:27 AM 41.6494 -74.7544 152° Southeast 302 348 7,800 -1,450 Descending Boston Center
Sat 08:43:27 AM 41.5856 -74.7133 154° Southeast 296 341 6,600 -850 Descending Boston Center
Sat 08:44:27 AM 41.5094 -74.6606 153° Southeast 285 328 6,100 -203 Descending Boston Center
Sat 08:45:55 AM 41.4000 -74.6000 157° South 283 326 6,100 -42 Level New York TRACON
Sat 08:46:49 AM 41.3333 -74.6167 191° South 278 320 6,000 -157 Descending New York TRACON
Sat 08:47:50 AM 41.2667 -74.5667 151° Southeast 282 325 5,800 -619 Descending New York TRACON
Sat 08:48:55 AM 41.2167 -74.4833 129° Southeast 281 323 4,700 -908 Descending New York TRACON
Sat 08:49:49 AM 41.1667 -74.4333 143° Southeast 271 312 4,000 -350 Descending New York TRACON
Sat 08:50:55 AM 41.1000 -74.3500 137° Southeast 272 313 4,000  Level New York TRACON
Sat 08:51:55 AM 41.0333 -74.2833 143° Southeast 276 318 4,000  Level New York TRACON
Sat 08:52:55 AM 40.9833 -74.2167 135° Southeast 276 318 4,000 -100 Level New York TRACON
Sat 08:53:55 AM 40.9333 -74.1500 135° Southeast 275 316 3,800 -522 Descending New York TRACON
Sat 08:54:50 AM 40.8667 -74.1000 150° Southeast 270 311 3,000 -700 Descending New York TRACON
Sat 08:55:55 AM 40.8167 -74.0833 166° South 229 264 2,400 -756 Descending New York TRACON
Sat 08:56:49 AM 40.7667 -74.1167 207° Southwest 192 221 1,500 -900 Descending New York TRACON
Sat 08:57:55 AM 40.7167 -74.1500 207° Southwest 139 160 600 -818 Descending New York TRACON
Sat 08:59:00 AM 40.6925 -74.1687 168° South  Level Estimated
Sat 09:06:00 AM 40.6925 -74.1687 168° South  Level Estimated
Sat 09:07:00 AM 40.6925 -74.1687 168° South  Level Estimated

Login

Don't have an account? Register now (free) for customized features, flight alerts, and more!